sensor_id;sensor_type;location;lat;lon;timestamp;temperature;humidity
16846;DHT22;8539;53.188;8.696;2023-06-22T00:01:47;16.80;99.90
16846;DHT22;8539;53.188;8.696;2023-06-22T00:04:16;16.70;99.90
16846;DHT22;8539;53.188;8.696;2023-06-22T00:06:42;16.70;99.90
16846;DHT22;8539;53.188;8.696;2023-06-22T00:09:08;16.70;99.90
16846;DHT22;8539;53.188;8.696;2023-06-22T00:11:37;16.70;99.90
16846;DHT22;8539;53.188;8.696;2023-06-22T00:14:04;16.70;99.90
16846;DHT22;8539;53.188;8.696;2023-06-22T00:16:36;16.70;99.90
16846;DHT22;8539;53.188;8.696;2023-06-22T00:19:05;16.70;99.90
16846;DHT22;8539;53.188;8.696;2023-06-22T00:21:44;16.70;99.90
16846;DHT22;8539;53.188;8.696;2023-06-22T00:24:51;16.70;99.90
16846;DHT22;8539;53.188;8.696;2023-06-22T00:27:20;16.60;99.90
16846;DHT22;8539;53.188;8.696;2023-06-22T00:29:48;16.70;99.90
16846;DHT22;8539;53.188;8.696;2023-06-22T00:32:15;16.60;99.90
16846;DHT22;8539;53.188;8.696;2023-06-22T00:34:44;16.60;99.90
16846;DHT22;8539;53.188;8.696;2023-06-22T00:37:13;16.60;99.90
16846;DHT22;8539;53.188;8.696;2023-06-22T00:39:48;16.60;99.90
16846;DHT22;8539;53.188;8.696;2023-06-22T00:42:20;16.60;99.90
16846;DHT22;8539;53.188;8.696;2023-06-22T00:44:58;16.60;99.90
16846;DHT22;8539;53.188;8.696;2023-06-22T00:47:39;16.60;99.90
16846;DHT22;8539;53.188;8.696;2023-06-22T00:53:42;16.50;99.90
16846;DHT22;8539;53.188;8.696;2023-06-22T00:57:06;16.50;99.90
16846;DHT22;8539;53.188;8.696;2023-06-22T00:59:48;16.50;99.90
16846;DHT22;8539;53.188;8.696;2023-06-22T01:02:27;16.40;99.90
16846;DHT22;8539;53.188;8.696;2023-06-22T01:05:35;16.40;99.90
16846;DHT22;8539;53.188;8.696;2023-06-22T01:08:53;16.40;99.90
16846;DHT22;8539;53.188;8.696;2023-06-22T01:11:52;16.40;99.90
16846;DHT22;8539;53.188;8.696;2023-06-22T01:17:57;16.40;99.90
16846;DHT22;8539;53.188;8.696;2023-06-22T01:20:41;16.40;99.90
16846;DHT22;8539;53.188;8.696;2023-06-22T01:26:28;16.40;99.90
16846;DHT22;8539;53.188;8.696;2023-06-22T01:29:04;16.40;99.90
16846;DHT22;8539;53.188;8.696;2023-06-22T01:31:32;16.30;99.90
16846;DHT22;8539;53.188;8.696;2023-06-22T01:34:06;16.30;99.90
16846;DHT22;8539;53.188;8.696;2023-06-22T01:36:36;16.30;99.90
16846;DHT22;8539;53.188;8.696;2023-06-22T01:39:11;16.30;99.90
16846;DHT22;8539;53.188;8.696;2023-06-22T01:41:39;16.30;99.90
16846;DHT22;8539;53.188;8.696;2023-06-22T01:44:13;16.30;99.90
16846;DHT22;8539;53.188;8.696;2023-06-22T01:46:43;16.30;99.90
16846;DHT22;8539;53.188;8.696;2023-06-22T01:49:13;16.30;99.90
16846;DHT22;8539;53.188;8.696;2023-06-22T01:51:40;16.30;99.90
16846;DHT22;8539;53.188;8.696;2023-06-22T01:54:09;16.30;99.90
16846;DHT22;8539;53.188;8.696;2023-06-22T01:56:36;16.20;99.90
16846;DHT22;8539;53.188;8.696;2023-06-22T01:59:17;16.20;99.90
16846;DHT22;8539;53.188;8.696;2023-06-22T02:02:09;16.20;99.90
16846;DHT22;8539;53.188;8.696;2023-06-22T02:05:28;16.20;99.90
16846;DHT22;8539;53.188;8.696;2023-06-22T02:08:19;16.10;99.90
16846;DHT22;8539;53.188;8.696;2023-06-22T02:11:06;16.10;99.90
16846;DHT22;8539;53.188;8.696;2023-06-22T02:20:58;16.00;99.90
16846;DHT22;8539;53.188;8.696;2023-06-22T02:38:40;15.80;99.90
16846;DHT22;8539;53.188;8.696;2023-06-22T02:41:48;15.80;99.90
16846;DHT22;8539;53.188;8.696;2023-06-22T02:44:57;15.70;99.90
16846;DHT22;8539;53.188;8.696;2023-06-22T02:47:49;15.70;99.90
16846;DHT22;8539;53.188;8.696;2023-06-22T02:50:29;15.70;99.90
16846;DHT22;8539;53.188;8.696;2023-06-22T02:52:55;15.60;99.90
16846;DHT22;8539;53.188;8.696;2023-06-22T02:55:22;15.60;99.90
16846;DHT22;8539;53.188;8.696;2023-06-22T02:57:49;15.60;99.90
16846;DHT22;8539;53.188;8.696;2023-06-22T03:00:19;15.60;99.90
16846;DHT22;8539;53.188;8.696;2023-06-22T03:02:49;15.60;99.90
16846;DHT22;8539;53.188;8.696;2023-06-22T03:05:15;15.50;99.90
16846;DHT22;8539;53.188;8.696;2023-06-22T03:07:44;15.50;99.90
16846;DHT22;8539;53.188;8.696;2023-06-22T03:10:13;15.50;99.90
16846;DHT22;8539;53.188;8.696;2023-06-22T03:12:40;15.50;99.90
16846;DHT22;8539;53.188;8.696;2023-06-22T03:15:08;15.50;99.90
16846;DHT22;8539;53.188;8.696;2023-06-22T03:17:35;15.50;99.90
16846;DHT22;8539;53.188;8.696;2023-06-22T03:20:02;15.40;99.90
16846;DHT22;8539;53.188;8.696;2023-06-22T03:22:35;15.40;99.90
16846;DHT22;8539;53.188;8.696;2023-06-22T03:25:02;15.40;99.90
16846;DHT22;8539;53.188;8.696;2023-06-22T03:27:28;15.40;99.90
16846;DHT22;8539;53.188;8.696;2023-06-22T03:29:54;15.40;99.90
16846;DHT22;8539;53.188;8.696;2023-06-22T03:32:20;15.50;99.90
16846;DHT22;8539;53.188;8.696;2023-06-22T03:34:47;15.50;99.90
16846;DHT22;8539;53.188;8.696;2023-06-22T03:37:16;15.50;99.90
16846;DHT22;8539;53.188;8.696;2023-06-22T03:39:43;15.50;99.90
16846;DHT22;8539;53.188;8.696;2023-06-22T03:42:09;15.50;99.90
16846;DHT22;8539;53.188;8.696;2023-06-22T03:44:36;15.50;99.90
16846;DHT22;8539;53.188;8.696;2023-06-22T03:47:04;15.60;99.90
16846;DHT22;8539;53.188;8.696;2023-06-22T03:49:30;15.60;99.90
16846;DHT22;8539;53.188;8.696;2023-06-22T03:54:39;15.60;99.90
16846;DHT22;8539;53.188;8.696;2023-06-22T04:01:57;15.70;99.90
16846;DHT22;8539;53.188;8.696;2023-06-22T04:04:38;15.70;99.90
16846;DHT22;8539;53.188;8.696;2023-06-22T04:07:28;15.70;99.90
16846;DHT22;8539;53.188;8.696;2023-06-22T04:09:57;15.80;99.90
16846;DHT22;8539;53.188;8.696;2023-06-22T04:12:43;15.80;99.90
16846;DHT22;8539;53.188;8.696;2023-06-22T04:15:44;15.90;99.90
16846;DHT22;8539;53.188;8.696;2023-06-22T04:18:42;15.90;99.90
16846;DHT22;8539;53.188;8.696;2023-06-22T04:21:14;16.00;99.90
16846;DHT22;8539;53.188;8.696;2023-06-22T04:23:52;16.00;99.90
16846;DHT22;8539;53.188;8.696;2023-06-22T04:26:21;16.10;99.90
16846;DHT22;8539;53.188;8.696;2023-06-22T04:28:48;16.10;99.90
16846;DHT22;8539;53.188;8.696;2023-06-22T04:31:17;16.10;99.90
16846;DHT22;8539;53.188;8.696;2023-06-22T04:33:55;16.20;99.90
16846;DHT22;8539;53.188;8.696;2023-06-22T04:43:28;16.40;99.90
16846;DHT22;8539;53.188;8.696;2023-06-22T04:45:57;16.50;99.90
16846;DHT22;8539;53.188;8.696;2023-06-22T04:48:32;16.60;99.90
16846;DHT22;8539;53.188;8.696;2023-06-22T04:50:59;16.60;99.90
16846;DHT22;8539;53.188;8.696;2023-06-22T04:53:30;16.70;99.90
16846;DHT22;8539;53.188;8.696;2023-06-22T04:55:56;16.70;99.90
16846;DHT22;8539;53.188;8.696;2023-06-22T04:58:23;16.80;99.90
16846;DHT22;8539;53.188;8.696;2023-06-22T05:00:53;16.90;99.90
16846;DHT22;8539;53.188;8.696;2023-06-22T05:03:57;17.00;99.90
16846;DHT22;8539;53.188;8.696;2023-06-22T05:06:27;17.10;99.90
16846;DHT22;8539;53.188;8.696;2023-06-22T05:08:54;17.20;99.90
16846;DHT22;8539;53.188;8.696;2023-06-22T05:11:27;17.40;99.90
16846;DHT22;8539;53.188;8.696;2023-06-22T05:13:55;17.70;99.90
16846;DHT22;8539;53.188;8.696;2023-06-22T05:16:24;17.80;99.90
16846;DHT22;8539;53.188;8.696;2023-06-22T05:19:04;18.00;99.90
16846;DHT22;8539;53.188;8.696;2023-06-22T05:21:31;18.10;99.90
16846;DHT22;8539;53.188;8.696;2023-06-22T05:24:00;18.20;99.90
16846;DHT22;8539;53.188;8.696;2023-06-22T05:26:29;18.30;99.90
16846;DHT22;8539;53.188;8.696;2023-06-22T05:28:56;18.30;99.90
16846;DHT22;8539;53.188;8.696;2023-06-22T05:31:23;18.40;99.90
16846;DHT22;8539;53.188;8.696;2023-06-22T05:33:52;18.50;99.90
16846;DHT22;8539;53.188;8.696;2023-06-22T05:36:18;18.70;99.90
16846;DHT22;8539;53.188;8.696;2023-06-22T05:38:51;18.70;99.90
16846;DHT22;8539;53.188;8.696;2023-06-22T05:41:18;18.80;99.90
16846;DHT22;8539;53.188;8.696;2023-06-22T05:43:44;18.80;99.90
16846;DHT22;8539;53.188;8.696;2023-06-22T05:46:10;18.80;99.90
16846;DHT22;8539;53.188;8.696;2023-06-22T05:48:36;18.90;99.90
16846;DHT22;8539;53.188;8.696;2023-06-22T05:51:02;18.90;99.90
16846;DHT22;8539;53.188;8.696;2023-06-22T05:53:28;18.90;99.90
16846;DHT22;8539;53.188;8.696;2023-06-22T05:55:55;18.90;99.90
16846;DHT22;8539;53.188;8.696;2023-06-22T05:58:21;18.90;99.90
16846;DHT22;8539;53.188;8.696;2023-06-22T06:00:47;18.90;99.90
16846;DHT22;8539;53.188;8.696;2023-06-22T06:03:13;18.90;99.90
16846;DHT22;8539;53.188;8.696;2023-06-22T06:05:43;19.00;99.90
16846;DHT22;8539;53.188;8.696;2023-06-22T06:08:10;19.00;99.90
16846;DHT22;8539;53.188;8.696;2023-06-22T06:10:37;19.00;99.90
16846;DHT22;8539;53.188;8.696;2023-06-22T06:13:03;19.00;99.90
16846;DHT22;8539;53.188;8.696;2023-06-22T06:15:31;19.10;99.90
16846;DHT22;8539;53.188;8.696;2023-06-22T06:17:58;19.10;99.90
16846;DHT22;8539;53.188;8.696;2023-06-22T06:20:25;19.30;99.90
16846;DHT22;8539;53.188;8.696;2023-06-22T06:22:57;19.40;99.90
16846;DHT22;8539;53.188;8.696;2023-06-22T06:25:23;19.50;99.90
16846;DHT22;8539;53.188;8.696;2023-06-22T06:27:51;19.70;99.90
16846;DHT22;8539;53.188;8.696;2023-06-22T06:30:18;19.80;99.90
16846;DHT22;8539;53.188;8.696;2023-06-22T06:32:45;20.00;99.90
16846;DHT22;8539;53.188;8.696;2023-06-22T06:35:13;20.10;99.90
16846;DHT22;8539;53.188;8.696;2023-06-22T06:37:41;20.30;99.90
16846;DHT22;8539;53.188;8.696;2023-06-22T06:40:09;20.40;99.90
16846;DHT22;8539;53.188;8.696;2023-06-22T06:42:42;20.60;99.90
16846;DHT22;8539;53.188;8.696;2023-06-22T06:45:18;20.80;99.90
16846;DHT22;8539;53.188;8.696;2023-06-22T06:47:44;20.90;99.90
16846;DHT22;8539;53.188;8.696;2023-06-22T06:50:11;21.00;99.90
16846;DHT22;8539;53.188;8.696;2023-06-22T06:52:37;21.20;99.90
16846;DHT22;8539;53.188;8.696;2023-06-22T06:55:04;21.20;99.90
16846;DHT22;8539;53.188;8.696;2023-06-22T06:57:33;21.30;99.90
16846;DHT22;8539;53.188;8.696;2023-06-22T07:00:00;21.40;99.90
16846;DHT22;8539;53.188;8.696;2023-06-22T07:02:26;21.50;99.90
16846;DHT22;8539;53.188;8.696;2023-06-22T07:04:56;21.60;99.90
16846;DHT22;8539;53.188;8.696;2023-06-22T07:07:22;21.70;99.90
16846;DHT22;8539;53.188;8.696;2023-06-22T07:09:48;21.80;99.90
16846;DHT22;8539;53.188;8.696;2023-06-22T07:12:14;21.90;99.90
16846;DHT22;8539;53.188;8.696;2023-06-22T07:14:41;22.00;99.90
16846;DHT22;8539;53.188;8.696;2023-06-22T07:17:07;22.00;99.90
16846;DHT22;8539;53.188;8.696;2023-06-22T07:19:33;22.10;99.90
16846;DHT22;8539;53.188;8.696;2023-06-22T07:21:59;22.30;99.90
16846;DHT22;8539;53.188;8.696;2023-06-22T07:24:25;22.40;99.90
16846;DHT22;8539;53.188;8.696;2023-06-22T07:26:51;22.50;99.90
16846;DHT22;8539;53.188;8.696;2023-06-22T07:29:18;22.60;99.90
16846;DHT22;8539;53.188;8.696;2023-06-22T07:31:44;22.70;99.90
16846;DHT22;8539;53.188;8.696;2023-06-22T07:34:10;22.80;99.90
16846;DHT22;8539;53.188;8.696;2023-06-22T07:36:37;22.80;99.90
16846;DHT22;8539;53.188;8.696;2023-06-22T07:39:03;22.80;99.90
16846;DHT22;8539;53.188;8.696;2023-06-22T07:41:30;22.90;99.90
16846;DHT22;8539;53.188;8.696;2023-06-22T07:43:56;22.90;99.90
16846;DHT22;8539;53.188;8.696;2023-06-22T07:46:22;23.00;99.90
16846;DHT22;8539;53.188;8.696;2023-06-22T07:48:49;23.10;99.90
16846;DHT22;8539;53.188;8.696;2023-06-22T07:51:15;23.20;99.90
16846;DHT22;8539;53.188;8.696;2023-06-22T07:53:42;23.40;99.90
16846;DHT22;8539;53.188;8.696;2023-06-22T07:56:11;23.40;99.90
16846;DHT22;8539;53.188;8.696;2023-06-22T07:58:37;23.40;99.90
16846;DHT22;8539;53.188;8.696;2023-06-22T08:01:04;23.50;99.90
16846;DHT22;8539;53.188;8.696;2023-06-22T08:03:30;23.50;99.90
16846;DHT22;8539;53.188;8.696;2023-06-22T08:05:56;23.70;99.90
16846;DHT22;8539;53.188;8.696;2023-06-22T08:08:22;23.80;99.90
16846;DHT22;8539;53.188;8.696;2023-06-22T08:10:48;23.90;99.90
16846;DHT22;8539;53.188;8.696;2023-06-22T08:13:14;24.00;99.90
16846;DHT22;8539;53.188;8.696;2023-06-22T08:15:41;24.10;99.90
16846;DHT22;8539;53.188;8.696;2023-06-22T08:18:07;24.20;99.90
16846;DHT22;8539;53.188;8.696;2023-06-22T08:20:36;24.30;99.90
16846;DHT22;8539;53.188;8.696;2023-06-22T08:23:02;24.40;99.90
16846;DHT22;8539;53.188;8.696;2023-06-22T08:25:33;24.50;99.90
16846;DHT22;8539;53.188;8.696;2023-06-22T08:28:00;24.60;99.90
16846;DHT22;8539;53.188;8.696;2023-06-22T08:30:26;24.60;99.90
16846;DHT22;8539;53.188;8.696;2023-06-22T08:32:53;24.70;99.90
16846;DHT22;8539;53.188;8.696;2023-06-22T08:35:23;24.70;99.90
16846;DHT22;8539;53.188;8.696;2023-06-22T08:37:49;24.70;99.90
16846;DHT22;8539;53.188;8.696;2023-06-22T08:40:19;24.70;99.90
16846;DHT22;8539;53.188;8.696;2023-06-22T08:42:49;24.90;99.90
16846;DHT22;8539;53.188;8.696;2023-06-22T08:45:15;25.00;99.90
16846;DHT22;8539;53.188;8.696;2023-06-22T08:47:42;25.10;99.90
16846;DHT22;8539;53.188;8.696;2023-06-22T08:50:09;25.30;99.90
16846;DHT22;8539;53.188;8.696;2023-06-22T08:52:37;25.30;99.90
16846;DHT22;8539;53.188;8.696;2023-06-22T08:57:55;25.50;99.90
16846;DHT22;8539;53.188;8.696;2023-06-22T09:00:21;25.60;99.90
16846;DHT22;8539;53.188;8.696;2023-06-22T09:02:50;25.70;99.90
16846;DHT22;8539;53.188;8.696;2023-06-22T09:05:16;25.80;99.90
16846;DHT22;8539;53.188;8.696;2023-06-22T09:07:51;25.90;99.90
16846;DHT22;8539;53.188;8.696;2023-06-22T09:10:17;26.10;99.90
16846;DHT22;8539;53.188;8.696;2023-06-22T09:12:47;26.30;99.90
16846;DHT22;8539;53.188;8.696;2023-06-22T09:15:13;26.50;99.90
16846;DHT22;8539;53.188;8.696;2023-06-22T09:17:40;26.50;99.90
16846;DHT22;8539;53.188;8.696;2023-06-22T09:20:07;26.40;99.90
16846;DHT22;8539;53.188;8.696;2023-06-22T09:22:36;26.50;99.90
16846;DHT22;8539;53.188;8.696;2023-06-22T09:25:07;26.60;99.90
16846;DHT22;8539;53.188;8.696;2023-06-22T09:27:34;26.60;99.90
16846;DHT22;8539;53.188;8.696;2023-06-22T09:30:00;26.60;99.90
16846;DHT22;8539;53.188;8.696;2023-06-22T09:32:26;26.60;99.90
16846;DHT22;8539;53.188;8.696;2023-06-22T09:34:58;26.70;99.90
16846;DHT22;8539;53.188;8.696;2023-06-22T09:37:24;26.90;99.90
16846;DHT22;8539;53.188;8.696;2023-06-22T09:39:50;27.00;99.90
16846;DHT22;8539;53.188;8.696;2023-06-22T09:42:17;27.20;99.90
16846;DHT22;8539;53.188;8.696;2023-06-22T09:44:43;27.30;99.90
16846;DHT22;8539;53.188;8.696;2023-06-22T09:47:09;27.40;99.90
16846;DHT22;8539;53.188;8.696;2023-06-22T09:49:35;27.40;99.90
16846;DHT22;8539;53.188;8.696;2023-06-22T09:52:09;27.40;99.90
16846;DHT22;8539;53.188;8.696;2023-06-22T09:54:37;27.30;99.90
16846;DHT22;8539;53.188;8.696;2023-06-22T09:57:03;27.30;99.90
16846;DHT22;8539;53.188;8.696;2023-06-22T09:59:29;27.40;99.90
16846;DHT22;8539;53.188;8.696;2023-06-22T10:01:55;27.50;99.90
16846;DHT22;8539;53.188;8.696;2023-06-22T10:04:21;27.60;99.90
16846;DHT22;8539;53.188;8.696;2023-06-22T10:06:47;27.70;99.90
16846;DHT22;8539;53.188;8.696;2023-06-22T10:09:13;27.80;99.90
16846;DHT22;8539;53.188;8.696;2023-06-22T10:11:39;28.00;99.90
16846;DHT22;8539;53.188;8.696;2023-06-22T10:14:06;28.20;99.90
16846;DHT22;8539;53.188;8.696;2023-06-22T10:16:32;28.30;99.90
16846;DHT22;8539;53.188;8.696;2023-06-22T10:18:59;28.40;99.80
16846;DHT22;8539;53.188;8.696;2023-06-22T10:21:25;28.30;99.80
16846;DHT22;8539;53.188;8.696;2023-06-22T10:23:53;28.30;99.80
16846;DHT22;8539;53.188;8.696;2023-06-22T10:26:19;28.30;99.70
16846;DHT22;8539;53.188;8.696;2023-06-22T10:28:45;28.20;99.50
16846;DHT22;8539;53.188;8.696;2023-06-22T10:31:11;28.20;99.50
16846;DHT22;8539;53.188;8.696;2023-06-22T10:33:37;28.20;99.50
16846;DHT22;8539;53.188;8.696;2023-06-22T10:36:03;28.20;99.50
16846;DHT22;8539;53.188;8.696;2023-06-22T10:38:30;28.30;99.50
16846;DHT22;8539;53.188;8.696;2023-06-22T10:40:59;28.40;99.50
16846;DHT22;8539;53.188;8.696;2023-06-22T10:43:25;28.60;99.60
16846;DHT22;8539;53.188;8.696;2023-06-22T10:45:51;28.80;99.60
16846;DHT22;8539;53.188;8.696;2023-06-22T10:48:17;28.90;99.60
16846;DHT22;8539;53.188;8.696;2023-06-22T10:50:43;28.90;99.40
16846;DHT22;8539;53.188;8.696;2023-06-22T10:53:09;28.90;99.30
16846;DHT22;8539;53.188;8.696;2023-06-22T10:55:35;28.90;99.30
16846;DHT22;8539;53.188;8.696;2023-06-22T10:58:01;28.80;99.30
16846;DHT22;8539;53.188;8.696;2023-06-22T11:00:28;28.80;99.30
16846;DHT22;8539;53.188;8.696;2023-06-22T11:02:54;28.80;99.40
16846;DHT22;8539;53.188;8.696;2023-06-22T11:05:20;28.80;99.40
16846;DHT22;8539;53.188;8.696;2023-06-22T11:07:46;28.70;99.50
16846;DHT22;8539;53.188;8.696;2023-06-22T11:10:13;28.60;99.50
16846;DHT22;8539;53.188;8.696;2023-06-22T11:12:40;28.60;99.50
16846;DHT22;8539;53.188;8.696;2023-06-22T11:15:06;28.50;99.50
16846;DHT22;8539;53.188;8.696;2023-06-22T11:17:33;28.50;99.60
16846;DHT22;8539;53.188;8.696;2023-06-22T11:19:59;28.50;99.70
16846;DHT22;8539;53.188;8.696;2023-06-22T11:22:26;28.50;99.60
16846;DHT22;8539;53.188;8.696;2023-06-22T11:24:52;28.50;99.60
16846;DHT22;8539;53.188;8.696;2023-06-22T11:27:18;28.50;99.60
16846;DHT22;8539;53.188;8.696;2023-06-22T11:29:45;28.50;99.70
16846;DHT22;8539;53.188;8.696;2023-06-22T11:32:11;28.60;99.70
16846;DHT22;8539;53.188;8.696;2023-06-22T11:34:38;28.80;99.70
16846;DHT22;8539;53.188;8.696;2023-06-22T11:37:04;28.90;99.80
16846;DHT22;8539;53.188;8.696;2023-06-22T11:39:30;29.10;99.70
16846;DHT22;8539;53.188;8.696;2023-06-22T11:41:56;29.10;99.50
16846;DHT22;8539;53.188;8.696;2023-06-22T11:44:23;29.10;99.30
16846;DHT22;8539;53.188;8.696;2023-06-22T11:46:49;29.00;99.10
16846;DHT22;8539;53.188;8.696;2023-06-22T11:49:15;29.00;98.90
16846;DHT22;8539;53.188;8.696;2023-06-22T11:51:41;28.90;98.70
16846;DHT22;8539;53.188;8.696;2023-06-22T11:54:07;28.60;98.60
16846;DHT22;8539;53.188;8.696;2023-06-22T11:56:36;28.50;98.70
16846;DHT22;8539;53.188;8.696;2023-06-22T11:59:03;28.50;98.80
16846;DHT22;8539;53.188;8.696;2023-06-22T12:01:29;28.50;98.90
16846;DHT22;8539;53.188;8.696;2023-06-22T12:03:55;28.50;98.80
16846;DHT22;8539;53.188;8.696;2023-06-22T12:06:21;28.50;99.00
16846;DHT22;8539;53.188;8.696;2023-06-22T12:08:47;28.40;99.00
16846;DHT22;8539;53.188;8.696;2023-06-22T12:11:13;28.30;98.90
16846;DHT22;8539;53.188;8.696;2023-06-22T12:13:39;28.20;98.90
16846;DHT22;8539;53.188;8.696;2023-06-22T12:16:05;28.10;98.70
16846;DHT22;8539;53.188;8.696;2023-06-22T12:18:32;28.10;98.70
16846;DHT22;8539;53.188;8.696;2023-06-22T12:20:59;28.10;98.70
16846;DHT22;8539;53.188;8.696;2023-06-22T12:23:25;28.20;98.50
16846;DHT22;8539;53.188;8.696;2023-06-22T12:25:51;28.10;98.50
16846;DHT22;8539;53.188;8.696;2023-06-22T12:28:17;28.10;98.40
16846;DHT22;8539;53.188;8.696;2023-06-22T12:30:43;28.10;98.40
16846;DHT22;8539;53.188;8.696;2023-06-22T12:33:10;28.10;98.50
16846;DHT22;8539;53.188;8.696;2023-06-22T12:35:36;28.00;98.50
16846;DHT22;8539;53.188;8.696;2023-06-22T12:38:02;27.90;98.80
16846;DHT22;8539;53.188;8.696;2023-06-22T12:40:29;27.90;99.00
16846;DHT22;8539;53.188;8.696;2023-06-22T12:42:55;27.90;99.20
16846;DHT22;8539;53.188;8.696;2023-06-22T12:45:21;27.90;99.30
16846;DHT22;8539;53.188;8.696;2023-06-22T12:47:47;27.90;99.30
16846;DHT22;8539;53.188;8.696;2023-06-22T12:50:15;27.90;99.30
16846;DHT22;8539;53.188;8.696;2023-06-22T12:52:42;27.90;99.20
16846;DHT22;8539;53.188;8.696;2023-06-22T12:55:09;27.90;99.30
16846;DHT22;8539;53.188;8.696;2023-06-22T12:57:35;27.80;99.20
16846;DHT22;8539;53.188;8.696;2023-06-22T13:00:02;27.80;99.20
16846;DHT22;8539;53.188;8.696;2023-06-22T13:02:30;27.60;99.30
16846;DHT22;8539;53.188;8.696;2023-06-22T13:04:56;27.50;99.30
16846;DHT22;8539;53.188;8.696;2023-06-22T13:07:22;27.40;99.40
16846;DHT22;8539;53.188;8.696;2023-06-22T13:09:49;27.30;99.50
16846;DHT22;8539;53.188;8.696;2023-06-22T13:12:19;27.30;99.60
16846;DHT22;8539;53.188;8.696;2023-06-22T13:14:46;27.30;99.70
16846;DHT22;8539;53.188;8.696;2023-06-22T13:17:13;27.20;99.80
16846;DHT22;8539;53.188;8.696;2023-06-22T13:19:39;27.20;99.90
16846;DHT22;8539;53.188;8.696;2023-06-22T13:22:34;27.20;99.90
16846;DHT22;8539;53.188;8.696;2023-06-22T13:25:06;27.10;99.90
16846;DHT22;8539;53.188;8.696;2023-06-22T13:27:33;27.10;99.90
16846;DHT22;8539;53.188;8.696;2023-06-22T13:29:59;27.00;99.90
16846;DHT22;8539;53.188;8.696;2023-06-22T13:32:25;27.00;99.90
16846;DHT22;8539;53.188;8.696;2023-06-22T13:34:53;27.00;99.90
16846;DHT22;8539;53.188;8.696;2023-06-22T13:37:19;27.00;99.90
16846;DHT22;8539;53.188;8.696;2023-06-22T13:39:45;27.10;99.90
16846;DHT22;8539;53.188;8.696;2023-06-22T13:42:13;27.10;99.90
16846;DHT22;8539;53.188;8.696;2023-06-22T13:44:39;27.10;99.90
16846;DHT22;8539;53.188;8.696;2023-06-22T13:47:09;27.10;99.90
16846;DHT22;8539;53.188;8.696;2023-06-22T13:49:35;27.00;99.90
16846;DHT22;8539;53.188;8.696;2023-06-22T13:52:01;27.00;99.90
16846;DHT22;8539;53.188;8.696;2023-06-22T13:54:32;27.00;99.90
16846;DHT22;8539;53.188;8.696;2023-06-22T13:57:00;27.00;99.90
16846;DHT22;8539;53.188;8.696;2023-06-22T13:59:32;26.90;99.90
16846;DHT22;8539;53.188;8.696;2023-06-22T14:02:01;26.90;99.90
16846;DHT22;8539;53.188;8.696;2023-06-22T14:04:27;26.90;99.90
16846;DHT22;8539;53.188;8.696;2023-06-22T14:06:54;26.90;99.90
16846;DHT22;8539;53.188;8.696;2023-06-22T14:09:53;26.80;99.90
16846;DHT22;8539;53.188;8.696;2023-06-22T14:12:22;26.80;99.90
16846;DHT22;8539;53.188;8.696;2023-06-22T14:14:51;26.80;99.90
16846;DHT22;8539;53.188;8.696;2023-06-22T14:17:25;26.80;99.90
16846;DHT22;8539;53.188;8.696;2023-06-22T14:20:12;26.80;99.90
16846;DHT22;8539;53.188;8.696;2023-06-22T14:22:41;26.70;99.90
16846;DHT22;8539;53.188;8.696;2023-06-22T14:25:33;26.60;99.90
16846;DHT22;8539;53.188;8.696;2023-06-22T14:28:02;26.50;99.90
16846;DHT22;8539;53.188;8.696;2023-06-22T14:30:29;26.50;99.90
16846;DHT22;8539;53.188;8.696;2023-06-22T14:33:04;26.40;99.90
16846;DHT22;8539;53.188;8.696;2023-06-22T14:35:41;26.20;99.90
16846;DHT22;8539;53.188;8.696;2023-06-22T14:38:16;26.20;99.90
16846;DHT22;8539;53.188;8.696;2023-06-22T14:40:42;26.20;99.90
16846;DHT22;8539;53.188;8.696;2023-06-22T14:43:08;26.10;99.90
16846;DHT22;8539;53.188;8.696;2023-06-22T14:45:40;26.10;99.90
16846;DHT22;8539;53.188;8.696;2023-06-22T14:48:06;26.10;99.90
16846;DHT22;8539;53.188;8.696;2023-06-22T14:50:32;26.10;99.90
16846;DHT22;8539;53.188;8.696;2023-06-22T14:52:59;26.00;99.90
16846;DHT22;8539;53.188;8.696;2023-06-22T14:55:26;26.00;99.90
16846;DHT22;8539;53.188;8.696;2023-06-22T14:57:52;26.00;99.90
16846;DHT22;8539;53.188;8.696;2023-06-22T15:00:18;25.90;99.90
16846;DHT22;8539;53.188;8.696;2023-06-22T15:02:45;25.80;99.90
16846;DHT22;8539;53.188;8.696;2023-06-22T15:05:16;25.80;99.90
16846;DHT22;8539;53.188;8.696;2023-06-22T15:07:45;25.70;99.90
16846;DHT22;8539;53.188;8.696;2023-06-22T15:10:11;25.70;99.90
16846;DHT22;8539;53.188;8.696;2023-06-22T15:12:40;25.60;99.90
16846;DHT22;8539;53.188;8.696;2023-06-22T15:15:10;25.60;99.90
16846;DHT22;8539;53.188;8.696;2023-06-22T15:17:47;25.50;99.90
16846;DHT22;8539;53.188;8.696;2023-06-22T15:20:19;25.50;99.90
16846;DHT22;8539;53.188;8.696;2023-06-22T15:22:45;25.40;99.90
16846;DHT22;8539;53.188;8.696;2023-06-22T15:25:20;25.40;99.90
16846;DHT22;8539;53.188;8.696;2023-06-22T15:27:56;25.30;99.90
16846;DHT22;8539;53.188;8.696;2023-06-22T15:30:22;25.30;99.90
16846;DHT22;8539;53.188;8.696;2023-06-22T15:32:51;25.20;99.90
16846;DHT22;8539;53.188;8.696;2023-06-22T15:35:26;25.20;99.90
16846;DHT22;8539;53.188;8.696;2023-06-22T15:37:55;25.20;99.90
16846;DHT22;8539;53.188;8.696;2023-06-22T15:40:21;25.10;99.90
16846;DHT22;8539;53.188;8.696;2023-06-22T15:42:49;25.00;99.90
16846;DHT22;8539;53.188;8.696;2023-06-22T15:45:16;25.00;99.90
16846;DHT22;8539;53.188;8.696;2023-06-22T15:47:42;24.90;99.90
16846;DHT22;8539;53.188;8.696;2023-06-22T15:50:09;24.80;99.90
16846;DHT22;8539;53.188;8.696;2023-06-22T15:52:35;24.70;99.90
16846;DHT22;8539;53.188;8.696;2023-06-22T15:55:04;24.60;99.90
16846;DHT22;8539;53.188;8.696;2023-06-22T15:57:30;24.60;99.90
16846;DHT22;8539;53.188;8.696;2023-06-22T15:59:56;24.50;99.90
16846;DHT22;8539;53.188;8.696;2023-06-22T16:05:24;24.40;99.90
16846;DHT22;8539;53.188;8.696;2023-06-22T16:07:56;24.20;99.90
16846;DHT22;8539;53.188;8.696;2023-06-22T16:10:25;24.10;99.90
16846;DHT22;8539;53.188;8.696;2023-06-22T16:12:53;24.00;99.90
16846;DHT22;8539;53.188;8.696;2023-06-22T16:15:23;23.90;99.90
16846;DHT22;8539;53.188;8.696;2023-06-22T16:17:49;23.80;99.90
16846;DHT22;8539;53.188;8.696;2023-06-22T16:20:18;23.70;99.90
16846;DHT22;8539;53.188;8.696;2023-06-22T16:22:53;23.60;99.90
16846;DHT22;8539;53.188;8.696;2023-06-22T16:25:20;23.40;99.90
16846;DHT22;8539;53.188;8.696;2023-06-22T16:27:46;23.20;99.90
16846;DHT22;8539;53.188;8.696;2023-06-22T16:30:12;23.10;99.90
16846;DHT22;8539;53.188;8.696;2023-06-22T16:32:39;22.90;99.90
16846;DHT22;8539;53.188;8.696;2023-06-22T16:35:17;22.70;99.90
16846;DHT22;8539;53.188;8.696;2023-06-22T16:37:44;22.60;99.90
16846;DHT22;8539;53.188;8.696;2023-06-22T16:40:10;22.40;99.90
16846;DHT22;8539;53.188;8.696;2023-06-22T16:42:36;22.30;99.90
16846;DHT22;8539;53.188;8.696;2023-06-22T16:45:02;22.10;99.90
16846;DHT22;8539;53.188;8.696;2023-06-22T16:47:29;22.10;99.90
16846;DHT22;8539;53.188;8.696;2023-06-22T16:49:55;22.00;99.90
16846;DHT22;8539;53.188;8.696;2023-06-22T16:52:22;21.90;99.90
16846;DHT22;8539;53.188;8.696;2023-06-22T16:54:48;21.80;99.90